Flight Track Log - Related Links

Times and Time Zones

All times are in EDT time to prevent confusion due to time zone crossing. See the AAY891 flight status page for this flight to view local times or setup timezone preferences in your user account.

Time Position Orientation Groundspeed Altitude Reporting Facility
EDT Latitude Longitude Course Direction KTS MPH feet Rate Location/Type
Fri 06:52:37 PM 40.8997 -85.1703 146° Southeast 235 270 4,000  Level Chicago Center
Fri 06:53:39 PM 40.8361 -85.1169 148° Southeast 260 299 6,100 2,758 Climbing Chicago Center
Fri 06:54:41 PM 40.7567 -85.0453 146° Southeast 285 328 9,700 2,565 Climbing Chicago Center
Fri 06:55:43 PM 40.6867 -84.9836 146° Southeast 295 339 11,400 1,824 Climbing Chicago Center
Fri 06:56:46 PM 40.6111 -84.9169 146° Southeast 333 383 13,500 1,776 Climbing Chicago Center
Fri 06:57:00 PM 40.2779 -85.0378 146° Southeast  Level Estimated
Fri 06:57:48 PM 40.5250 -84.8417 146° Southeast 360 414 15,100  Level Chicago Center
Fri 06:58:50 PM 40.4008 -84.7481 150° Southeast 425 489 16,700 1,790 Climbing Chicago Center
Fri 06:59:52 PM 40.2836 -84.7283 173° South 427 491 18,800 1,548 Climbing Chicago Center
Fri 07:00:54 PM 40.1608 -84.7033 171° South 440 506 19,900 1,210 Climbing Chicago Center
Fri 07:01:56 PM 40.0322 -84.6783 172° South 457 526 21,300 1,306 Climbing Chicago Center
Fri 07:02:58 PM 39.8975 -84.6506 171° South 476 548 22,600 1,403 Climbing Chicago Center
Fri 07:04:00 PM 39.7619 -84.6231 171° South 485 558 24,200 1,600 Climbing Chicago Center
Fri 07:05:28 PM 39.5569 -84.5978 175° South 489 563 26,600 1,400 Climbing Indianapolis Center
Fri 07:06:30 PM 39.4233 -84.5961 179° South 487 560 27,700 1,161 Climbing Indianapolis Center
Fri 07:07:32 PM 39.2594 -84.5922 179° South 487 560 29,000 1,210 Climbing Indianapolis Center
Fri 07:08:34 PM 39.1231 -84.5875 178° South 488 562 30,200 968 Climbing Indianapolis Center
Fri 07:09:36 PM 38.9897 -84.5833 179° South 487 560 31,000 387 Climbing Indianapolis Center
Fri 07:10:38 PM 38.8650 -84.5797 179° South 480 552 31,000  Level Indianapolis Center
Fri 07:11:40 PM 38.7064 -84.5731 178° South 478 550 31,000  Level Indianapolis Center
Fri 07:12:42 PM 38.5811 -84.5708 179° South 478 550 31,000  Level Indianapolis Center
Fri 07:13:44 PM 38.4456 -84.5692 179° South 480 552 31,000  Level Indianapolis Center
Fri 07:14:46 PM 38.3119 -84.5653 179° South 480 552 31,000  Level Indianapolis Center
Fri 07:15:47 PM 38.1544 -84.5611 179° South 481 554 31,000  Level Indianapolis Center
Fri 07:16:49 PM 38.0206 -84.5572 179° South 481 554 31,000  Level Indianapolis Center
Fri 07:17:51 PM 37.8853 -84.5533 179° South 481 554 31,000  Level Indianapolis Center
Fri 07:18:53 PM 37.7511 -84.5514 179° South 482 555 31,000  Level Indianapolis Center
Fri 07:19:55 PM 37.6189 -84.5461 178° South 481 554 31,000  Level Indianapolis Center
Fri 07:20:57 PM 37.4631 -84.5422 179° South 481 554 31,000  Level Indianapolis Center
Fri 07:21:59 PM 37.3294 -84.5392 179° South 481 554 31,000  Level Indianapolis Center
Fri 07:23:01 PM 37.1950 -84.5358 179° South 481 554 31,000  Level Indianapolis Center
Fri 07:24:02 PM 37.0606 -84.5322 179° South 481 554 31,000  Level Indianapolis Center
Fri 07:25:04 PM 36.9150 -84.5278 179° South 481 554 31,000  Level Indianapolis Center
Fri 07:26:06 PM 36.7803 -84.5242 179° South 482 555 31,000  Level Indianapolis Center
Fri 07:27:08 PM 36.6458 -84.5217 179° South 482 555 31,000  Level Indianapolis Center
Fri 07:28:10 PM 36.5100 -84.5169 178° South 482 555 31,000  Level Indianapolis Center
Fri 07:29:12 PM 36.3747 -84.5133 179° South 483 556 31,000  Level Indianapolis Center
Fri 07:30:13 PM 36.2406 -84.5100 179° South 482 555 31,000  Level Indianapolis Center
Fri 07:31:15 PM 36.0783 -84.5050 179° South 482 555 31,000  Level Indianapolis Center
Fri 07:32:12 PM 35.9656 -84.5056 180° South 487 560 31,000  Level Atlanta Center
Fri 07:33:12 PM 35.8300 -84.4997 178° South 487 560 31,000  Level Atlanta Center
Fri 07:34:12 PM 35.6944 -84.4989 180° South 487 560 31,000  Level Atlanta Center
Fri 07:35:12 PM 35.5611 -84.4931 178° South 487 560 31,000  Level Atlanta Center
Fri 07:36:12 PM 35.4253 -84.4925 180° South 487 560 31,000  Level Atlanta Center
Fri 07:37:12 PM 35.2794 -84.4892 179° South 487 560 31,000  Level Atlanta Center
Fri 07:38:12 PM 35.1417 -84.4858 179° South 487 560 31,000  Level Atlanta Center
Fri 07:39:12 PM 35.0039 -84.4825 179° South 487 560 31,000  Level Atlanta Center
Fri 07:41:12 PM 34.7514 -84.4736 178° South 488 562 31,000  Level Atlanta Center
Fri 07:42:12 PM 34.6136 -84.4703 179° South 488 562 31,000  Level Atlanta Center
Fri 07:43:12 PM 34.4803 -84.4672 179° South 488 562 31,000  Level Atlanta Center
Fri 07:44:12 PM 34.3444 -84.4639 179° South 488 562 31,000  Level Atlanta Center
Fri 07:45:12 PM 34.2108 -84.4608 179° South 488 562 31,000  Level Atlanta Center
Fri 07:46:12 PM 34.0586 -84.4600 180° South 496 571 31,000  Level Atlanta Center
Fri 07:47:12 PM 33.9208 -84.4569 179° South 496 571 31,000 450 Level Atlanta Center
Fri 07:48:12 PM 33.7914 -84.4539 179° South 486 559 31,900 900 Climbing Atlanta Center
Fri 07:49:12 PM 33.6558 -84.4481 178° South 487 560 32,800 550 Climbing Atlanta Center
Fri 07:50:12 PM 33.5161 -84.4450 179° South 492 566 33,000 100 Climbing Atlanta Center
Fri 07:51:12 PM 33.3783 -84.4417 179° South 492 566 33,000  Level Atlanta Center
Fri 07:52:12 PM 33.2447 -84.4386 179° South 492 566 33,000  Level Atlanta Center
Fri 07:53:12 PM 33.1089 -84.4406 181° South 492 566 33,000  Level Atlanta Center
Fri 07:54:12 PM 32.9733 -84.4622 188° South 492 566 33,000  Level Atlanta Center
Fri 07:55:12 PM 32.8375 -84.4814 187° South 497 572 33,000  Level Atlanta Center
Fri 07:56:12 PM 32.7017 -84.4881 182° South 497 572 33,000  Level Atlanta Center
Fri 07:57:12 PM 32.5639 -84.4850 179° South 497 572 33,000  Level Atlanta Center
Fri 08:01:16 PM 32.0147 -84.4656 178° South 485 558 33,000  Level Jacksonville Center
Fri 08:02:16 PM 31.8817 -84.4364 169° South 496 571 33,000  Level Jacksonville Center
Fri 08:03:16 PM 31.7506 -84.3928 164° South 491 565 33,000  Level Jacksonville Center
Fri 08:04:16 PM 31.6217 -84.3442 162° South 486 559 33,000  Level Jacksonville Center
Fri 08:05:16 PM 31.4906 -84.2983 163° South 491 565 33,000  Level Jacksonville Center
Fri 08:06:16 PM 31.3639 -84.2525 163° South 491 565 33,000  Level Jacksonville Center
Fri 08:07:16 PM 31.2347 -84.2069 163° South 491 565 33,000  Level Jacksonville Center
Fri 08:08:16 PM 31.1058 -84.1617 163° South 491 565 33,000  Level Jacksonville Center
Fri 08:09:16 PM 30.9789 -84.1186 164° South 485 558 33,000  Level Jacksonville Center
Fri 08:10:16 PM 30.8519 -84.0733 163° South 485 558 33,000  Level Jacksonville Center
Fri 08:11:16 PM 30.7250 -84.0283 163° South 480 552 33,000  Level Jacksonville Center
Fri 08:12:16 PM 30.5981 -83.9833 163° South 480 552 33,000  Level Jacksonville Center
Fri 08:13:16 PM 30.4628 -83.9361 163° South 475 547 33,000  Level Jacksonville Center
Fri 08:14:16 PM 30.3336 -83.8914 163° South 475 547 33,000  Level Jacksonville Center
Fri 08:15:16 PM 30.2044 -83.8467 163° South 481 554 33,000  Level Jacksonville Center
Fri 08:16:16 PM 30.0775 -83.8047 164° South 481 554 33,000 -350 Level Jacksonville Center
Fri 08:17:16 PM 29.9544 -83.7628 164° South 474 545 32,300 -750 Descending Jacksonville Center
Fri 08:18:16 PM 29.8294 -83.7208 164° South 469 540 31,500 -850 Descending Jacksonville Center
Fri 08:19:16 PM 29.7047 -83.6769 163° South 469 540 30,600 -900 Descending Jacksonville Center
Fri 08:20:16 PM 29.5753 -83.6353 164° South 474 545 29,700 -900 Descending Jacksonville Center
Fri 08:21:16 PM 29.4503 -83.5914 163° South 474 545 28,800 -900 Descending Jacksonville Center
Fri 08:22:16 PM 29.3233 -83.5475 163° South 474 545 27,900 -1,700 Descending Jacksonville Center
Fri 08:23:16 PM 29.2003 -83.5017 162° South 474 545 25,400 -2,200 Descending Jacksonville Center
Fri 08:24:16 PM 29.1025 -83.4367 150° Southeast 462 532 23,500 -1,800 Descending Jacksonville Center
Fri 08:25:16 PM 28.9983 -83.3697 151° Southeast 443 510 21,800 -1,700 Descending Jacksonville Center
Fri 08:26:16 PM 28.8986 -83.3053 150° Southeast 432 497 20,100 -1,850 Descending Jacksonville Center
Fri 08:27:16 PM 28.7983 -83.2433 152° Southeast 411 473 18,100 -1,950 Descending Jacksonville Center
Fri 08:28:16 PM 28.7047 -83.1836 151° Southeast 400 460 16,200 -1,950 Descending Jacksonville Center
Fri 08:29:16 PM 28.6150 -83.1244 150° Southeast 388 447 14,200 -1,939 Descending Jacksonville Center
Fri 08:29:55 PM 28.5500 -83.0833 151° Southeast 365 420 13,000 -1,143 Descending Tampa TRACON
Fri 08:31:01 PM 28.4667 -83.0333 152° Southeast 322 371 12,200 -1,000 Descending Tampa TRACON
Fri 08:32:01 PM 28.3833 -82.9833 152° Southeast 299 344 10,900 -1,474 Descending Tampa TRACON
Fri 08:32:55 PM 28.3167 -82.9500 156° South 297 342 9,400 -1,586 Descending Tampa TRACON
Fri 08:33:28 PM 28.2797 -82.9192 144° Southeast 301 346 8,600 -1,468 Descending Miami Center
Fri 08:34:29 PM 28.2094 -82.8767 152° Southeast 291 335 7,100 -1,515 Descending Miami Center
Fri 08:35:07 PM 28.1500 -82.8667 172° South 277 319 6,100 -1,531 Descending Tampa TRACON
Fri 08:36:07 PM 28.0833 -82.8333 156° South 272 313 4,600 -1,350 Descending Tampa TRACON
Fri 08:37:07 PM 28.0000 -82.8167 170° South 267 307 3,400 -905 Descending Tampa TRACON
Fri 08:38:13 PM 27.9333 -82.8000 168° South 215 247 2,700 -550 Descending Tampa TRACON
Fri 08:39:07 PM 27.9000 -82.7833 156° South 181 208 2,300 -421 Descending Tampa TRACON
Fri 08:40:07 PM 27.8500 -82.7667 164° South 183 211 1,900 -368 Descending Tampa TRACON
Fri 08:41:01 PM 27.8167 -82.7333 139° Southeast 191 220 1,600 -368 Descending Tampa TRACON
Fri 08:42:01 PM 27.8333 -82.6833 69° East 154 177 1,200 -524 Descending Tampa TRACON
Fri 08:43:07 PM 27.8833 -82.6833 360° North 146 168 500 -636 Descending Tampa TRACON

Login

Don't have an account? Register now (free) for customized features, flight alerts, and more!